Thursday, November 23, 2017, 6:20 PM GMT
Back to Local

CYUL, Montreal / Pierre Elliot Trudeau International Airport, Que

Location: , , Canada Lat: 45.467
Local Time: 6:20 PM GMT (18:20 GMT) Lon: -73.75
Time Zone: GMT Elev: 101 ft

Show me the last for .
Show Decoded

2017-11-23 18:00 METAR CYUL 231800Z 22009KT 30SM FEW030 BKN040 OVC150 M03/M09 A3001 RMK CF1SC6AC2
                 CF TR SLP166 =
2017-11-23 17:00 METAR CYUL 231700Z 22012KT 30SM BKN018 OVC120 M04/M09 A3003 RMK SC6AC2 SLP173 =
2017-11-23 16:00 METAR CYUL 231600Z 22009KT 30SM FEW030 BKN120 OVC250 M04/M10 A3006 RMK SC2AC3CI3
                 CC ASOCT SLP184 =
2017-11-23 15:00 METAR CYUL 231500Z 26007KT 15SM FEW020 FEW025 OVC130 M05/M11 A3010 RMK SC1CF1AC7
                 SC TR SLP198 =
2017-11-23 14:00 METAR CYUL 231400Z 25010KT 30SM FEW020 BKN160 BKN240 M05/M12 A3012 RMK CF1AC4CI2
                 SLP203 =
2017-11-23 13:00 METAR CYUL 231300Z 24004KT 30SM FEW015 BKN240 M07/M10 A3013 RMK CF1CI5 SLP205 =
2017-11-23 12:00 METAR CYUL 231200Z 28005KT 15SM FEW015 FEW020 SCT240 M08/M11 A3014 RMK CF1SC1CI3
                 CF TR SLP209 =
2017-11-23 11:00 METAR CYUL 231100Z 28005KT 15SM FEW025 M08/M12 A3013 RMK SC1 SLP207 =
2017-11-23 10:00 METAR CYUL 231000Z 29009KT 15SM FEW028 M07/M12 A3012 RMK SC2 SLP203 =
2017-11-23 09:00 METAR CYUL 230900Z 28009KT 15SM SCT028 M07/M12 A3011 RMK SC4 SLP201 =
2017-11-23 08:00 METAR CYUL 230800Z 28008KT 15SM BKN028 M06/M12 A3012 RMK SC7 SLP202 =
2017-11-23 07:00 METAR CYUL 230700Z 28008KT 15SM OVC027 M05/M11 A3011 RMK SC8 SLP199 =
2017-11-23 06:00 METAR CYUL 230600Z 28008KT 15SM OVC026 M05/M11 A3010 RMK SC8 SLP198 =
2017-11-23 05:00 METAR CYUL 230500Z 28009KT 15SM OVC027 M05/M10 A3011 RMK SC8 SLP201 =
2017-11-23 04:00 METAR CYUL 230400Z 28010KT 15SM BKN025 M05/M10 A3011 RMK SC7 SLP199 =
2017-11-23 03:00 METAR CYUL 230300Z 28011G16KT 15SM BKN025 M04/M09 A3010 RMK SC7 SLP197 =
2017-11-23 02:00 METAR CYUL 230200Z 28014KT 15SM BKN024 M04/M09 A3009 RMK SC7 SLP193 =
2017-11-23 01:00 METAR CYUL 230100Z 29012KT 15SM BKN025 BKN055 M03/M08 A3008 RMK SC5SC2 SLP191 =
2017-11-23 00:00 METAR CYUL 230000Z 29011KT 15SM FEW020 BKN055 M02/M07 A3007 RMK SC1SC6 SLP187 =
2017-11-22 23:00 METAR CYUL 222300Z 30011KT 15SM FEW030 OVC055 M01/M05 A3004 RMK CF1SC8 CF TR
                 SLP175 =
2017-11-22 22:00 METAR CYUL 222200Z 29011KT 15SM FEW030 OVC055 00/M04 A3002 RMK CF1SC8 CF TR
                 SLP169 =
2017-11-22 21:00 METAR CYUL 222100Z 29013G18KT 15SM FEW012 FEW030 OVC055 01/M03 A3001 RMK
                 SF1SC2SC6 SF TR SLP164 =
2017-11-22 20:00 METAR CYUL 222000Z 28012G18KT 15SM FEW014 OVC055 02/M02 A2998 RMK SF2SC6 SLP156
                 =
2017-11-22 19:21 METAR CYUL 221921Z 28013KT 15SM SCT013 OVC055 02/M01 A2997 RMK SF3SC5 SLP151 =
2017-11-22 19:07 METAR CYUL 221907Z 27012KT 15SM BKN014 OVC050 02/M00 A2997 RMK SF5SC3 SLP151 =
2017-11-22 19:00 METAR CYUL 221900Z 27010KT 15SM FEW012 OVC050 03/M00 A2997 RMK SF2SC6 SLP150 =

Support USWX by starting your Amazon purchase here.